createdAt,value
2018-03-03T00:02:26.371Z,56.50
2018-03-03T00:04:54.815Z,57.45
2018-03-03T00:07:23.950Z,56.50
2018-03-03T00:09:52.348Z,56.33
2018-03-03T00:12:20.633Z,54.75
2018-03-03T00:14:48.904Z,54.53
2018-03-03T00:17:17.205Z,57.97
2018-03-03T00:19:45.498Z,55.60
2018-03-03T00:22:19.652Z,57.58
2018-03-03T00:24:47.955Z,55.75
2018-03-03T00:27:16.209Z,57.70
2018-03-03T00:29:45.341Z,56.53
2018-03-03T00:32:14.481Z,59.67
2018-03-03T00:34:42.756Z,57.62
2018-03-03T00:37:11.078Z,58.08
2018-03-03T00:39:39.337Z,56.72
2018-03-03T00:42:08.134Z,55.40
2018-03-03T00:44:37.196Z,55.28
2018-03-03T00:47:05.482Z,56.22
2018-03-03T00:49:33.785Z,55.55
2018-03-03T00:52:02.072Z,57.13
2018-03-03T00:54:31.119Z,59.70
2018-03-03T00:56:59.405Z,58.38
2018-03-03T00:59:27.753Z,56.60
2018-03-03T01:01:56.048Z,57.15
2018-03-03T01:04:24.340Z,57.95
2018-03-03T01:06:52.592Z,58.80
2018-03-03T01:09:21.151Z,58.72
2018-03-03T01:11:50.163Z,58.83
2018-03-03T01:14:18.433Z,56.72
2018-03-03T01:16:46.761Z,60.83
2018-03-03T01:19:15.798Z,61.22
2018-03-03T01:21:44.126Z,58.13
2018-03-03T01:24:12.508Z,56.88
2018-03-03T01:26:41.789Z,57.22
2018-03-03T01:29:10.039Z,59.00
2018-03-03T01:31:38.327Z,61.03
2018-03-03T01:34:06.637Z,59.50
2018-03-03T01:36:35.761Z,59.05
2018-03-03T01:39:04.787Z,57.55
2018-03-03T01:41:33.206Z,57.88
2018-03-03T01:44:02.255Z,58.63
2018-03-03T01:46:30.520Z,57.97
2018-03-03T01:48:58.806Z,55.22
2018-03-03T01:51:44.104Z,57.50
2018-03-03T01:54:12.424Z,58.53
2018-03-03T01:56:40.718Z,56.60
2018-03-03T01:59:08.998Z,56.15
2018-03-03T02:01:37.270Z,57.20
2018-03-03T02:04:05.824Z,58.75
2018-03-03T02:06:35.620Z,55.78
2018-03-03T02:09:04.041Z,62.40
2018-03-03T02:11:32.320Z,60.15
2018-03-03T02:14:00.607Z,59.05
2018-03-03T02:16:29.799Z,58.05
2018-03-03T02:18:58.125Z,59.55
2018-03-03T02:21:26.398Z,66.20
2018-03-03T02:23:54.700Z,60.85
2018-03-03T02:26:23.014Z,58.03
2018-03-03T02:28:52.254Z,59.20
2018-03-03T02:31:21.452Z,58.83
2018-03-03T02:33:49.746Z,56.85
2018-03-03T02:36:18.156Z,60.28
2018-03-03T02:38:46.593Z,60.60
2018-03-03T02:41:14.863Z,61.17
2018-03-03T02:43:43.154Z,56.42
2018-03-03T02:46:11.517Z,60.03
2018-03-03T02:48:39.869Z,58.85
2018-03-03T02:51:08.933Z,60.58
2018-03-03T02:53:37.211Z,61.10
2018-03-03T02:56:05.496Z,63.85
2018-03-03T02:58:33.772Z,62.45
2018-03-03T03:01:02.072Z,59.80
2018-03-03T03:03:30.377Z,59.53
2018-03-03T03:05:58.706Z,64.90
2018-03-03T03:08:27.744Z,61.50
2018-03-03T03:10:56.024Z,62.08
2018-03-03T03:13:24.308Z,63.13
2018-03-03T03:15:52.582Z,62.00
2018-03-03T03:18:20.883Z,60.05
2018-03-03T03:20:49.295Z,59.40
2018-03-03T03:23:17.592Z,61.28
2018-03-03T03:25:45.947Z,59.95
2018-03-03T03:28:15.022Z,60.38
2018-03-03T03:30:43.283Z,62.42
2018-03-03T03:33:11.606Z,59.00
2018-03-03T03:35:39.884Z,62.40
2018-03-03T03:38:08.201Z,59.40
2018-03-03T03:40:36.514Z,57.25
2018-03-03T03:43:04.978Z,61.30
2018-03-03T03:45:34.028Z,60.12
2018-03-03T03:48:02.302Z,61.90
2018-03-03T03:50:30.581Z,58.00
2018-03-03T03:52:58.864Z,60.00
2018-03-03T03:55:27.122Z,58.35
2018-03-03T03:57:55.394Z,59.05
2018-03-03T04:00:25.419Z,58.40
2018-03-03T04:02:53.718Z,59.53
2018-03-03T04:05:22.038Z,58.40
2018-03-03T04:07:50.537Z,59.30
2018-03-03T04:10:18.813Z,61.80
2018-03-03T04:12:47.647Z,65.05
2018-03-03T04:15:15.904Z,64.00
2018-03-03T04:17:44.318Z,56.20
2018-03-03T04:20:12.695Z,65.25
2018-03-03T04:22:41.751Z,60.00
2018-03-03T04:25:10.182Z,64.18
2018-03-03T04:27:38.471Z,58.70
2018-03-03T04:30:06.758Z,62.78
2018-03-03T04:32:35.032Z,63.03
2018-03-03T04:35:03.335Z,61.78
2018-03-03T04:37:32.517Z,60.05
2018-03-03T04:40:00.856Z,60.70
2018-03-03T04:42:29.124Z,65.12
2018-03-03T04:44:57.512Z,62.45
2018-03-03T04:47:25.770Z,60.15
2018-03-03T04:49:54.829Z,63.20
2018-03-03T04:52:23.083Z,66.60
2018-03-03T04:54:51.370Z,62.60
2018-03-03T04:57:19.638Z,60.15
2018-03-03T05:00:06.613Z,61.37
2018-03-03T05:02:40.466Z,60.90
2018-03-03T05:05:13.602Z,59.97
2018-03-03T05:07:43.836Z,63.40
2018-03-03T05:10:12.499Z,62.53
2018-03-03T05:12:42.068Z,60.10
2018-03-03T05:18:15.928Z,62.45
2018-03-03T05:20:49.820Z,67.25
2018-03-03T05:23:23.700Z,61.80
2018-03-03T05:25:57.777Z,60.45
2018-03-03T05:28:27.907Z,64.43
2018-03-03T05:31:01.821Z,63.95
2018-03-03T05:33:33.899Z,60.92
2018-03-03T05:39:12.204Z,65.78
2018-03-03T05:41:46.858Z,66.43
2018-03-03T05:44:23.717Z,61.78
2018-03-03T05:50:13.203Z,62.08
2018-03-03T05:52:45.814Z,61.95
2018-03-03T05:55:19.631Z,60.28
2018-03-03T06:00:51.214Z,63.60
2018-03-03T06:03:25.854Z,60.97
2018-03-03T06:09:07.876Z,59.80
2018-03-03T06:11:36.240Z,59.50
2018-03-03T06:14:05.445Z,57.90
2018-03-03T06:16:33.883Z,64.57
2018-03-03T06:19:03.825Z,61.75
2018-03-03T06:21:32.838Z,61.42
2018-03-03T06:24:01.107Z,57.42
2018-03-03T06:26:29.996Z,61.10
2018-03-03T06:28:59.130Z,56.78
2018-03-03T06:31:27.403Z,58.70
2018-03-03T06:33:55.682Z,60.30
2018-03-03T06:36:23.944Z,61.42
2018-03-03T06:38:52.214Z,65.75
2018-03-03T06:41:20.493Z,63.10
2018-03-03T06:43:48.763Z,62.42
2018-03-03T06:46:17.042Z,60.80
2018-03-03T06:48:45.365Z,61.15
2018-03-03T06:51:13.662Z,62.33
2018-03-03T06:53:41.923Z,64.18
2018-03-03T06:56:10.182Z,62.95
2018-03-03T06:58:39.250Z,65.18
2018-03-03T07:01:07.516Z,60.60
2018-03-03T07:03:35.938Z,65.32
2018-03-03T07:06:04.980Z,68.37
2018-03-03T07:08:33.264Z,61.60
2018-03-03T07:11:01.534Z,60.83
2018-03-03T07:13:29.810Z,62.50
2018-03-03T07:15:58.131Z,64.20
2018-03-03T07:18:26.365Z,61.00
2018-03-03T07:20:54.636Z,62.70
2018-03-03T07:23:22.943Z,61.72
2018-03-03T07:25:52.241Z,63.28
2018-03-03T07:28:21.335Z,62.58
2018-03-03T07:30:49.788Z,57.30
2018-03-03T07:33:18.055Z,59.92
2018-03-03T07:35:47.134Z,61.37
2018-03-03T07:38:15.559Z,61.70
2018-03-03T07:40:45.381Z,66.60
2018-03-03T07:43:14.443Z,59.67
2018-03-03T07:45:42.714Z,64.37
2018-03-03T07:48:11.028Z,60.40
2018-03-03T07:50:40.061Z,61.78
2018-03-03T07:53:09.111Z,62.10
2018-03-03T07:55:38.176Z,60.47
2018-03-03T07:58:07.337Z,61.35
2018-03-03T08:00:35.701Z,60.70
2018-03-03T08:03:04.313Z,60.35
2018-03-03T08:05:32.608Z,60.60
2018-03-03T08:08:01.070Z,59.90
2018-03-03T08:10:29.364Z,61.15
2018-03-03T08:12:57.926Z,64.78
2018-03-03T08:15:26.247Z,59.38
2018-03-03T08:17:55.320Z,62.28
2018-03-03T08:20:23.681Z,61.22
2018-03-03T08:22:51.951Z,61.10
2018-03-03T08:25:20.244Z,61.58
2018-03-03T08:27:48.591Z,59.70
2018-03-03T08:30:16.860Z,59.50
2018-03-03T08:32:45.216Z,57.40
2018-03-03T08:35:13.610Z,57.50
2018-03-03T08:37:42.128Z,60.70
2018-03-03T08:40:10.370Z,58.13
2018-03-03T08:42:40.197Z,56.65
2018-03-03T08:45:08.479Z,60.83
2018-03-03T08:47:36.767Z,58.75
2018-03-03T08:50:05.044Z,58.10
2018-03-03T08:52:33.303Z,58.03
2018-03-03T08:55:01.590Z,60.10
2018-03-03T08:57:29.864Z,55.95
2018-03-03T08:59:58.304Z,55.25
2018-03-03T09:02:26.868Z,56.78
2018-03-03T09:04:55.136Z,58.10
2018-03-03T09:07:23.431Z,53.90
2018-03-03T09:09:51.738Z,55.72
2018-03-03T09:12:20.032Z,56.03
2018-03-03T09:14:49.096Z,57.38
2018-03-03T09:17:17.477Z,58.13
2018-03-03T09:19:46.644Z,56.58
2018-03-03T09:22:14.905Z,55.08
2018-03-03T09:24:43.236Z,56.20
2018-03-03T09:27:13.299Z,51.15
2018-03-03T09:29:42.400Z,55.92
2018-03-03T09:32:10.776Z,54.55
2018-03-03T09:34:39.833Z,51.60
2018-03-03T09:37:08.244Z,46.95
2018-03-03T09:39:36.547Z,48.55
2018-03-03T09:42:04.916Z,54.50
2018-03-03T09:44:33.195Z,49.00
2018-03-03T09:47:01.528Z,51.45
2018-03-03T09:49:32.326Z,49.05
2018-03-03T09:52:01.418Z,45.17
2018-03-03T09:54:29.811Z,48.58
2018-03-03T09:56:59.603Z,46.75
2018-03-03T09:59:27.894Z,46.75
2018-03-03T10:02:05.923Z,47.95
2018-03-03T10:04:26.086Z,47.60
2018-03-03T10:06:54.418Z,48.20
2018-03-03T10:09:23.937Z,46.83
2018-03-03T10:11:55.271Z,45.65
2018-03-03T10:14:23.584Z,46.50
2018-03-03T10:16:51.852Z,46.10
2018-03-03T10:19:20.115Z,44.00
2018-03-03T10:21:48.381Z,44.95
2018-03-03T10:24:16.664Z,45.05
2018-03-03T10:26:47.083Z,45.33
2018-03-03T10:29:15.344Z,45.80
2018-03-03T10:31:43.638Z,44.13
2018-03-03T10:34:11.904Z,41.90
2018-03-03T10:36:42.421Z,42.28
2018-03-03T10:39:11.016Z,43.10
2018-03-03T10:41:39.400Z,41.08
2018-03-03T10:44:08.336Z,43.33
2018-03-03T10:46:38.268Z,45.15
2018-03-03T10:49:07.319Z,44.10
2018-03-03T10:51:35.739Z,41.33
2018-03-03T10:54:04.824Z,42.28
2018-03-03T10:56:34.886Z,45.83
2018-03-03T10:59:03.128Z,45.35
2018-03-03T11:01:31.540Z,43.33
2018-03-03T11:03:59.993Z,42.70
2018-03-03T11:06:29.097Z,44.47
2018-03-03T11:08:57.452Z,43.95
2018-03-03T11:11:25.721Z,43.15
2018-03-03T11:13:54.818Z,43.15
2018-03-03T11:16:23.921Z,41.37
2018-03-03T11:18:52.254Z,43.67
2018-03-03T11:21:23.016Z,43.28
2018-03-03T11:23:51.307Z,45.65
2018-03-03T11:26:19.568Z,42.72
2018-03-03T11:28:48.687Z,45.05
2018-03-03T11:31:16.935Z,41.92
2018-03-03T11:33:46.992Z,40.78
2018-03-03T11:36:15.947Z,39.72
2018-03-03T11:38:46.047Z,41.88
2018-03-03T11:41:14.586Z,38.47
2018-03-03T11:43:43.037Z,42.70
2018-03-03T11:46:11.495Z,40.92
2018-03-03T11:48:41.101Z,41.00
2018-03-03T11:51:10.152Z,40.72
2018-03-03T11:53:38.429Z,40.85
2018-03-03T11:56:07.624Z,40.00
2018-03-03T11:58:35.892Z,38.75
2018-03-03T12:01:04.457Z,42.50
2018-03-03T12:03:32.722Z,41.30
2018-03-03T12:06:01.013Z,40.05
2018-03-03T12:08:29.300Z,44.60
2018-03-03T12:10:57.565Z,40.72
2018-03-03T12:13:25.848Z,40.42
2018-03-03T12:15:54.092Z,41.13
2018-03-03T12:18:22.401Z,39.80
2018-03-03T12:20:50.694Z,38.58
2018-03-03T12:23:18.968Z,39.78
2018-03-03T12:25:47.270Z,41.33
2018-03-03T12:28:16.433Z,40.22
2018-03-03T12:30:44.755Z,39.85
2018-03-03T12:33:13.841Z,39.80
2018-03-03T12:35:42.897Z,40.47
2018-03-03T12:38:11.363Z,40.53
2018-03-03T12:40:39.659Z,41.08
2018-03-03T12:43:07.979Z,41.50
2018-03-03T12:45:36.277Z,43.70
2018-03-03T12:48:04.633Z,43.40
2018-03-03T12:50:33.671Z,44.75
2018-03-03T12:53:02.130Z,42.45
2018-03-03T12:55:30.424Z,41.90
2018-03-03T12:57:58.883Z,43.75
2018-03-03T13:00:27.160Z,41.72
2018-03-03T13:02:55.467Z,42.55
2018-03-03T13:05:23.729Z,42.67
2018-03-03T13:07:52.047Z,43.28
2018-03-03T13:10:21.210Z,42.25
2018-03-03T13:12:49.496Z,40.40
2018-03-03T13:15:17.804Z,43.78
2018-03-03T13:17:46.858Z,43.17
2018-03-03T13:20:15.185Z,43.25
2018-03-03T13:22:43.473Z,41.08
2018-03-03T13:25:11.766Z,42.22
2018-03-03T13:27:40.124Z,43.87
2018-03-03T13:30:08.396Z,40.42
2018-03-03T13:32:36.684Z,41.80
2018-03-03T13:35:05.028Z,42.88
2018-03-03T13:37:34.076Z,43.08
2018-03-03T13:40:02.336Z,44.33
2018-03-03T13:42:31.328Z,43.35
2018-03-03T13:44:59.592Z,40.28
2018-03-03T13:47:27.985Z,39.40
2018-03-03T13:49:56.468Z,40.80
2018-03-03T13:52:24.890Z,42.72
2018-03-03T13:54:54.042Z,42.17
2018-03-03T13:57:24.700Z,42.38
2018-03-03T13:59:53.057Z,40.83
2018-03-03T14:02:21.440Z,42.05
2018-03-03T14:04:49.851Z,40.60
2018-03-03T14:07:19.029Z,40.92
2018-03-03T14:09:47.626Z,43.30
2018-03-03T14:12:15.920Z,43.25
2018-03-03T14:14:44.191Z,42.47
2018-03-03T14:17:12.509Z,41.33
2018-03-03T14:19:40.799Z,44.78
2018-03-03T14:22:10.694Z,42.47
2018-03-03T14:24:39.275Z,41.88
2018-03-03T14:27:07.611Z,41.35
2018-03-03T14:29:37.705Z,42.30
2018-03-03T14:32:06.942Z,43.67
2018-03-03T14:34:35.239Z,42.62
2018-03-03T14:37:04.163Z,42.30
2018-03-03T14:39:37.512Z,42.97
2018-03-03T14:42:05.987Z,45.92
2018-03-03T14:44:35.138Z,43.28
2018-03-03T14:47:04.174Z,46.80
2018-03-03T14:49:32.859Z,44.47
2018-03-03T14:52:01.685Z,46.17
2018-03-03T14:54:30.175Z,42.80
2018-03-03T14:56:59.030Z,47.90
2018-03-03T14:59:27.558Z,43.63
2018-03-03T15:01:56.601Z,44.05
2018-03-03T15:04:24.951Z,47.78
2018-03-03T15:06:53.234Z,45.28
2018-03-03T15:09:23.294Z,45.95
2018-03-03T15:11:53.441Z,45.40
2018-03-03T15:14:22.660Z,45.03
2018-03-03T15:16:50.936Z,44.70
2018-03-03T15:19:20.064Z,43.97
2018-03-03T15:21:48.692Z,44.75
2018-03-03T15:24:21.998Z,44.63
2018-03-03T15:26:50.607Z,44.50
2018-03-03T15:29:18.910Z,43.63
2018-03-03T15:31:47.239Z,45.42
2018-03-03T15:34:15.615Z,43.15
2018-03-03T15:36:44.189Z,44.30
2018-03-03T15:39:13.264Z,43.20
2018-03-03T15:41:41.551Z,43.60
2018-03-03T15:44:10.641Z,43.33
2018-03-03T15:46:40.256Z,43.65
2018-03-03T15:49:09.543Z,44.67
2018-03-03T15:51:38.533Z,46.30
2018-03-03T15:54:07.695Z,47.90
2018-03-03T15:56:35.970Z,49.53
2018-03-03T15:59:04.303Z,47.15
2018-03-03T16:01:32.690Z,45.45
2018-03-03T16:04:01.288Z,46.00
2018-03-03T16:06:29.873Z,45.78
2018-03-03T16:08:58.127Z,49.97
2018-03-03T16:11:31.554Z,47.70
2018-03-03T16:14:00.797Z,47.33
2018-03-03T16:16:29.267Z,47.33
2018-03-03T16:18:57.901Z,46.83
2018-03-03T16:21:26.242Z,49.20
2018-03-03T16:23:55.309Z,49.03
2018-03-03T16:26:23.568Z,48.85
2018-03-03T16:28:51.893Z,53.50
2018-03-03T16:31:20.183Z,47.45
2018-03-03T16:33:48.487Z,50.40
2018-03-03T16:36:16.849Z,50.35
2018-03-03T16:38:45.208Z,50.40
2018-03-03T16:41:13.492Z,50.30
2018-03-03T16:43:41.812Z,49.35
2018-03-03T16:46:10.083Z,49.58
2018-03-03T16:48:38.359Z,52.65
2018-03-03T16:51:06.640Z,52.95
2018-03-03T16:53:35.992Z,52.17
2018-03-03T16:56:04.333Z,53.47
2018-03-03T16:58:33.403Z,53.03
2018-03-03T17:01:04.956Z,52.83
2018-03-03T17:03:34.198Z,53.63
2018-03-03T17:06:02.689Z,52.28
2018-03-03T17:08:31.258Z,54.00
2018-03-03T17:10:59.649Z,51.42
2018-03-03T17:13:27.897Z,53.97
2018-03-03T17:15:56.970Z,52.83
2018-03-03T17:18:25.264Z,54.45
2018-03-03T17:20:54.447Z,53.55
2018-03-03T17:23:22.730Z,53.00
2018-03-03T17:25:51.752Z,55.05
2018-03-03T17:28:20.775Z,53.00
2018-03-03T17:30:49.032Z,57.13
2018-03-03T17:33:17.408Z,55.25
2018-03-03T17:35:45.831Z,56.08
2018-03-03T17:38:15.139Z,51.35
2018-03-03T17:40:43.457Z,53.85
2018-03-03T17:43:11.728Z,52.30
2018-03-03T17:45:40.059Z,53.15
2018-03-03T17:48:09.098Z,52.78
2018-03-03T17:50:37.372Z,52.83
2018-03-03T17:53:05.650Z,53.65
2018-03-03T17:55:33.928Z,54.10
2018-03-03T17:58:02.251Z,54.17
2018-03-03T18:00:30.541Z,54.92
2018-03-03T18:02:59.599Z,53.70
2018-03-03T18:05:28.565Z,53.92
2018-03-03T18:07:56.994Z,54.92
2018-03-03T18:10:25.264Z,52.75
2018-03-03T18:12:54.465Z,53.95
2018-03-03T18:15:22.794Z,53.30
2018-03-03T18:17:51.105Z,53.25
2018-03-03T18:20:19.404Z,54.90
2018-03-03T18:22:49.322Z,57.45
2018-03-03T18:25:19.208Z,53.13
2018-03-03T18:27:47.514Z,54.58
2018-03-03T18:30:17.161Z,52.80
2018-03-03T18:32:46.229Z,54.65
2018-03-03T18:35:14.577Z,51.03
2018-03-03T18:37:43.679Z,53.05
2018-03-03T18:40:12.754Z,53.45
2018-03-03T18:42:41.222Z,56.92
2018-03-03T18:45:09.530Z,53.58
2018-03-03T18:47:39.197Z,52.70
2018-03-03T18:50:07.525Z,52.00
2018-03-03T18:52:35.850Z,53.90
2018-03-03T18:55:04.122Z,55.15
2018-03-03T18:57:33.160Z,53.60
2018-03-03T19:00:01.471Z,54.47
2018-03-03T19:02:29.808Z,55.33
2018-03-03T19:04:59.631Z,55.95
2018-03-03T19:07:27.912Z,56.88
2018-03-03T19:09:56.208Z,60.15
2018-03-03T19:12:24.487Z,51.92
2018-03-03T19:14:52.770Z,56.75
2018-03-03T19:17:21.203Z,55.95
2018-03-03T19:19:50.245Z,58.15
2018-03-03T19:22:18.558Z,55.83
2018-03-03T19:24:47.611Z,56.40
2018-03-03T19:27:15.928Z,56.08
2018-03-03T19:29:44.984Z,54.88
2018-03-03T19:32:13.269Z,54.88
2018-03-03T19:34:41.579Z,57.67
2018-03-03T19:37:10.648Z,53.60
2018-03-03T19:39:38.919Z,53.17
2018-03-03T19:42:07.216Z,54.90
2018-03-03T19:44:36.389Z,57.60
2018-03-03T19:47:04.682Z,57.95
2018-03-03T19:49:33.106Z,57.33
2018-03-03T19:52:01.434Z,58.87
2018-03-03T19:54:29.734Z,55.38
2018-03-03T19:56:58.026Z,58.47
2018-03-03T19:59:26.352Z,57.60
2018-03-03T20:01:54.637Z,59.08
2018-03-03T20:04:22.920Z,58.45
2018-03-03T20:06:52.060Z,56.65
2018-03-03T20:09:20.343Z,56.63
2018-03-03T20:11:48.652Z,62.45
2018-03-03T20:14:18.119Z,59.30
2018-03-03T20:16:46.401Z,58.00
2018-03-03T20:19:14.690Z,56.40
2018-03-03T20:21:42.981Z,57.40
2018-03-03T20:24:12.760Z,58.72
2018-03-03T20:26:41.071Z,58.38
2018-03-03T20:29:09.366Z,60.25
2018-03-03T20:31:38.423Z,57.97
2018-03-03T20:34:06.771Z,55.08
2018-03-03T20:36:35.045Z,57.15
2018-03-03T20:39:03.365Z,57.67
2018-03-03T20:41:31.664Z,58.87
2018-03-03T20:44:00.730Z,58.92
2018-03-03T20:46:29.001Z,56.35
2018-03-03T20:48:57.321Z,58.78
2018-03-03T20:51:25.647Z,58.72
2018-03-03T20:53:54.022Z,59.30
2018-03-03T20:56:22.442Z,58.87
2018-03-03T20:58:51.503Z,58.55
2018-03-03T21:01:19.808Z,60.08
2018-03-03T21:03:48.847Z,58.53
2018-03-03T21:06:17.886Z,70.25
2018-03-03T21:08:46.964Z,69.12
2018-03-03T21:11:15.730Z,65.03
2018-03-03T21:13:44.931Z,64.90
2018-03-03T21:16:14.000Z,63.78
2018-03-03T21:18:42.306Z,60.45
2018-03-03T21:21:10.601Z,64.28
2018-03-03T21:23:40.358Z,62.90
2018-03-03T21:26:09.007Z,66.65
2018-03-03T21:28:38.109Z,63.75
2018-03-03T21:31:06.544Z,64.40
2018-03-03T21:33:34.946Z,63.87
2018-03-03T21:36:04.033Z,64.87
2018-03-03T21:38:32.594Z,65.28
2018-03-03T21:41:01.064Z,66.80
2018-03-03T21:43:29.628Z,65.32
2018-03-03T21:45:58.007Z,67.22
2018-03-03T21:48:26.328Z,68.37
2018-03-03T21:50:54.597Z,63.75
2018-03-03T21:53:22.907Z,66.15
2018-03-03T21:55:51.937Z,69.55
2018-03-03T21:58:20.321Z,68.12
2018-03-03T22:00:48.622Z,66.53
2018-03-03T22:03:17.688Z,68.95
2018-03-03T22:05:46.640Z,72.37
2018-03-03T22:08:16.091Z,67.70
2018-03-03T22:10:44.591Z,72.32
2018-03-03T22:13:14.790Z,70.30
2018-03-03T22:15:44.639Z,70.57
2018-03-03T22:18:13.699Z,68.47
2018-03-03T22:20:42.415Z,71.05
2018-03-03T22:23:10.725Z,72.68
2018-03-03T22:25:39.123Z,68.93
2018-03-03T22:28:07.551Z,71.50
2018-03-03T22:30:36.686Z,70.80
2018-03-03T22:33:04.986Z,75.25
2018-03-03T22:35:34.145Z,72.25
2018-03-03T22:38:02.413Z,68.70
2018-03-03T22:40:31.783Z,70.03
2018-03-03T22:43:00.828Z,72.60
2018-03-03T22:45:30.290Z,71.25
2018-03-03T22:48:01.306Z,71.65
2018-03-03T22:50:30.939Z,67.03
2018-03-03T22:53:00.646Z,73.40
2018-03-03T22:55:30.871Z,73.12
2018-03-03T22:58:00.413Z,71.93
2018-03-03T23:00:28.792Z,71.93
2018-03-03T23:02:57.150Z,67.70
2018-03-03T23:05:25.532Z,70.10
2018-03-03T23:07:53.827Z,69.97
2018-03-03T23:10:22.122Z,70.97
2018-03-03T23:12:51.857Z,69.43
2018-03-03T23:15:20.921Z,72.28
2018-03-03T23:17:49.215Z,68.57
2018-03-03T23:20:18.290Z,73.85
2018-03-03T23:22:46.802Z,69.78
2018-03-03T23:25:15.133Z,72.07
2018-03-03T23:30:18.126Z,72.12
2018-03-03T23:32:46.419Z,72.50
2018-03-03T23:35:15.521Z,71.70
2018-03-03T23:37:44.709Z,73.10
2018-03-03T23:40:13.051Z,73.07
2018-03-03T23:42:41.335Z,71.50
2018-03-03T23:45:09.622Z,70.07
2018-03-03T23:47:43.790Z,73.43
2018-03-03T23:50:12.862Z,69.30
2018-03-03T23:52:42.089Z,70.55
2018-03-03T23:55:11.136Z,65.97
2018-03-03T23:57:39.480Z,75.50
